Time;durP1;ratioP1;P1;durP2;ratioP2;P2;SDS_P1;SDS_P2;PMS_P1;PMS_P2;Temp;Humidity;BMP_temperature;BMP_pressure;BME280_temperature;BME280_humidity;BME280_pressure;Samples;Min_cycle;Max_cycle;Signal;HPM_P1;HPM_P2
2022/03/19 00:00:32;;;;;;;13.77;6.60;;;;;;;12.60;56.04;102929.44;5050254;28;20045;-89
2022/03/19 00:02:57;;;;;;;13.95;5.97;;;;;;;12.46;56.52;102924.66;5051757;28;20435;-88
2022/03/19 00:05:23;;;;;;;15.68;6.22;;;;;;;12.43;56.81;102919.50;5050565;28;20426;-89
2022/03/19 00:07:49;;;;;;;13.82;6.65;;;;;;;12.53;56.52;102931.44;5051690;28;20075;-89
2022/03/19 00:10:16;;;;;;;14.30;6.43;;;;;;;12.66;56.25;102918.69;5049338;28;20021;-89
2022/03/19 00:12:42;;;;;;;13.57;7.00;;;;;;;12.41;56.70;102921.34;5051425;28;20025;-89
2022/03/19 00:15:09;;;;;;;15.15;6.80;;;;;;;12.21;57.47;102936.06;5051936;28;20501;-89
2022/03/19 00:17:34;;;;;;;14.73;6.10;;;;;;;12.30;57.22;102914.69;5049470;28;20037;-89
2022/03/19 00:20:00;;;;;;;18.17;6.70;;;;;;;12.36;57.15;102915.38;5051603;28;20023;-88
2022/03/19 00:22:25;;;;;;;13.13;6.82;;;;;;;12.33;57.09;102915.50;5048039;28;20490;-89
2022/03/19 00:24:51;;;;;;;10.00;6.30;;;;;;;12.19;57.85;102926.50;5049381;28;20037;-89
2022/03/19 00:27:16;;;;;;;13.63;7.00;;;;;;;12.42;56.91;102917.78;5050208;28;20069;-89
2022/03/19 00:29:41;;;;;;;11.70;5.90;;;;;;;12.54;56.52;102920.00;5051150;28;20021;-89
2022/03/19 00:32:07;;;;;;;18.25;7.10;;;;;;;11.93;58.15;102927.38;5047871;28;20033;-89
2022/03/19 00:34:33;;;;;;;23.70;8.30;;;;;;;12.19;57.66;102932.63;5051179;28;20494;-88
2022/03/19 00:36:58;;;;;;;12.68;6.55;;;;;;;12.41;57.12;102921.34;5050397;28;20494;-89
2022/03/19 00:39:24;;;;;;;15.15;6.60;;;;;;;12.29;57.33;102914.72;5049046;28;20033;-89
2022/03/19 00:41:50;;;;;;;17.60;7.70;;;;;;;12.14;57.78;102924.00;5045815;28;20475;-89
2022/03/19 00:44:15;;;;;;;14.35;6.43;;;;;;;12.14;58.00;102925.78;5031447;28;20040;-89
2022/03/19 00:46:41;;;;;;;18.13;6.80;;;;;;;12.21;57.69;102909.72;5047400;28;20024;-88
2022/03/19 00:49:06;;;;;;;13.30;6.82;;;;;;;12.47;57.08;102918.50;5047295;28;20029;-89
2022/03/19 00:51:32;;;;;;;17.95;7.53;;;;;;;12.13;57.61;102917.03;5047945;28;20029;-88
2022/03/19 00:53:58;;;;;;;12.10;6.80;;;;;;;11.61;59.38;102906.47;5049627;28;20115;-89
2022/03/19 00:56:23;;;;;;;19.75;7.22;;;;;;;11.94;58.72;102906.25;5049811;28;20386;-89
2022/03/19 00:58:49;;;;;;;16.52;7.15;;;;;;;11.99;58.38;102904.34;5050915;28;20096;-87
2022/03/19 01:01:14;;;;;;;19.55;7.03;;;;;;;12.20;58.00;102907.16;5048613;28;20032;-88
2022/03/19 01:03:39;;;;;;;12.93;7.30;;;;;;;12.30;57.59;102892.72;5051054;28;20052;-88
2022/03/19 01:06:05;;;;;;;12.45;7.63;;;;;;;12.06;58.08;102894.47;5063435;28;20535;-88
2022/03/19 01:08:30;;;;;;;20.05;8.30;;;;;;;11.62;59.48;102889.75;5052572;28;20471;-89
2022/03/19 01:10:56;;;;;;;11.68;6.97;;;;;;;11.50;59.83;102903.31;5049026;28;20483;-89
2022/03/19 01:13:21;;;;;;;17.88;7.88;;;;;;;11.88;58.98;102896.75;5034732;28;20430;-89
2022/03/19 01:15:47;;;;;;;16.52;7.20;;;;;;;11.65;59.50;102900.19;5038349;28;20075;-89
2022/03/19 01:18:12;;;;;;;15.15;7.43;;;;;;;11.79;58.77;102897.09;5054605;28;20020;-89
2022/03/19 01:20:38;;;;;;;23.73;8.73;;;;;;;11.96;58.57;102895.69;5053109;28;20056;-89
2022/03/19 01:23:03;;;;;;;16.95;7.97;;;;;;;12.08;58.24;102890.88;5052581;28;20102;-89
2022/03/19 01:25:29;;;;;;;16.27;7.30;;;;;;;12.14;58.10;102879.25;5047916;28;20076;-89
2022/03/19 01:27:54;;;;;;;16.23;7.40;;;;;;;12.07;57.91;102875.13;5052564;28;20114;-89
2022/03/19 01:30:21;;;;;;;20.73;6.63;;;;;;;11.91;58.74;102880.06;5054270;28;20067;-89
2022/03/19 01:32:48;;;;;;;15.40;7.53;;;;;;;12.04;58.13;102873.44;5052873;28;20032;-89
2022/03/19 01:35:15;;;;;;;25.65;8.25;;;;;;;11.83;58.81;102876.78;5052421;28;20402;-88
2022/03/19 01:37:42;;;;;;;16.98;7.57;;;;;;;11.97;58.59;102871.09;5050602;28;20036;-89
2022/03/19 01:40:10;;;;;;;22.73;8.40;;;;;;;11.80;59.04;102856.69;5054107;28;20029;-89
2022/03/19 01:42:39;;;;;;;20.15;7.47;;;;;;;11.94;58.69;102863.28;5053895;28;20498;-89
2022/03/19 01:45:08;;;;;;;22.58;8.18;;;;;;;11.82;58.94;102862.75;5053721;28;20036;-88
2022/03/19 01:47:33;;;;;;;22.05;7.88;;;;;;;11.62;59.62;102863.44;5049629;28;20548;-89
2022/03/19 01:49:59;;;;;;;20.00;7.60;;;;;;;11.67;59.39;102866.78;5050077;28;20108;-89
2022/03/19 01:52:31;;;;;;;12.68;7.03;;;;;;;11.59;59.86;102849.50;5052704;28;20391;-89
2022/03/19 01:54:58;;;;;;;14.23;7.22;;;;;;;11.77;59.08;102840.13;5044283;28;20033;-89
2022/03/19 01:57:27;;;;;;;17.95;8.10;;;;;;;11.65;59.58;102841.41;5052542;28;20033;-88
2022/03/19 01:59:56;;;;;;;16.63;7.65;;;;;;;11.75;59.28;102841.94;5053664;28;20376;-89
2022/03/19 02:02:24;;;;;;;15.10;7.78;;;;;;;11.64;59.69;102831.81;5047439;28;20022;-89
2022/03/19 02:04:50;;;;;;;15.90;8.07;;;;;;;11.84;58.91;102821.44;5033812;28;20022;-89
2022/03/19 02:07:15;;;;;;;21.88;9.65;;;;;;;11.73;59.58;102834.13;5052392;28;20031;-88
2022/03/19 02:09:41;;;;;;;12.90;8.50;;;;;;;11.50;59.74;102829.63;5052076;28;20025;-89
2022/03/19 02:12:07;;;;;;;13.30;8.30;;;;;;;11.57;59.87;102827.66;5052171;28;20033;-88
2022/03/19 02:14:36;;;;;;;19.45;8.02;;;;;;;11.66;59.32;102819.44;5053423;28;20493;-89
2022/03/19 02:17:03;;;;;;;15.48;8.23;;;;;;;11.54;60.17;102817.25;5051609;28;20044;-88
2022/03/19 02:19:28;;;;;;;21.73;9.57;;;;;;;11.54;60.45;102820.72;5050704;28;20487;-89
2022/03/19 02:21:54;;;;;;;21.38;9.52;;;;;;;11.66;59.79;102807.16;5053227;28;20035;-89
2022/03/19 02:27:03;;;;;;;20.85;9.93;;;;;;;11.52;60.13;102804.13;5052147;28;20087;-89
2022/03/19 02:29:29;;;;;;;23.83;10.65;;;;;;;10.71;62.60;102805.81;5052809;28;20383;-89
2022/03/19 02:31:58;;;;;;;19.85;9.18;;;;;;;11.15;61.30;102804.47;5052152;28;20031;-89
2022/03/19 02:34:24;;;;;;;18.35;8.93;;;;;;;11.15;61.63;102800.06;5052074;28;20025;-88
2022/03/19 02:36:50;;;;;;;20.90;8.98;;;;;;;11.07;61.30;102802.94;5052876;28;20033;-89
2022/03/19 02:39:28;;;;;;;19.83;9.77;;;;;;;10.68;62.50;102784.00;5051503;28;20037;-88
2022/03/19 02:41:54;;;;;;;23.77;10.38;;;;;;;11.09;61.42;102795.00;5067379;28;20049;-89
2022/03/19 02:44:20;;;;;;;16.75;10.30;;;;;;;11.16;61.47;102791.28;5052838;28;20055;-88
2022/03/19 02:46:53;;;;;;;22.08;9.98;;;;;;;11.56;60.33;102779.44;5051789;28;20041;-88
2022/03/19 02:49:19;;;;;;;26.00;11.07;;;;;;;11.44;60.48;102774.59;5048694;28;20394;-88
2022/03/19 02:51:47;;;;;;;22.70;11.38;;;;;;;11.37;60.93;102773.91;5051681;28;20029;-88
2022/03/19 02:54:14;;;;;;;24.73;12.60;;;;;;;11.50;60.57;102764.72;5064481;28;20535;-88
2022/03/19 02:56:42;;;;;;;17.58;10.82;;;;;;;11.40;60.61;102767.72;5052535;28;20017;-88
2022/03/19 02:59:09;;;;;;;28.98;11.80;;;;;;;11.09;61.65;102763.47;5050338;28;20048;-88
2022/03/19 03:01:35;;;;;;;24.23;12.05;;;;;;;11.02;62.48;102765.44;5051723;28;20021;-88
2022/03/19 03:04:02;;;;;;;22.42;12.00;;;;;;;11.01;62.13;102758.44;5052399;28;20065;-88
2022/03/19 03:06:28;;;;;;;23.00;12.05;;;;;;;10.76;63.27;102770.63;5051622;28;20556;-88
2022/03/19 03:08:54;;;;;;;28.88;12.07;;;;;;;10.74;63.47;102751.44;5052448;28;20386;-89
2022/03/19 03:11:19;;;;;;;28.60;12.05;;;;;;;10.92;62.49;102748.25;5050343;28;20067;-88
2022/03/19 03:13:45;;;;;;;30.73;13.18;;;;;;;11.00;62.50;102748.84;5050145;28;20383;-88
2022/03/19 03:16:10;;;;;;;25.38;12.07;;;;;;;11.08;62.35;102748.63;5051410;28;20021;-88
2022/03/19 03:18:38;;;;;;;24.27;12.30;;;;;;;11.02;62.32;102740.91;5052254;28;20029;-88
2022/03/19 03:21:03;;;;;;;22.42;12.85;;;;;;;11.11;61.98;102730.94;5049917;28;20029;-88
2022/03/19 03:23:29;;;;;;;28.15;16.10;;;;;;;10.98;62.14;102745.41;5047379;28;20395;-88
2022/03/19 03:25:54;;;;;;;24.80;13.15;;;;;;;10.99;62.53;102741.88;5048348;28;20112;-89
2022/03/19 03:28:19;;;;;;;21.63;13.32;;;;;;;10.98;62.51;102727.03;5051001;28;20036;-88
2022/03/19 03:30:45;;;;;;;35.70;14.60;;;;;;;11.07;62.28;102733.72;5051991;28;20032;-88
2022/03/19 03:33:10;;;;;;;24.02;13.57;;;;;;;10.97;62.50;102727.06;5050786;28;20097;-88
2022/03/19 03:35:36;;;;;;;23.70;13.32;;;;;;;10.99;62.58;102718.22;5051915;28;20040;-88
2022/03/19 03:38:01;;;;;;;21.80;13.27;;;;;;;10.81;63.26;102706.53;5051075;28;20020;-88
2022/03/19 03:40:26;;;;;;;29.98;15.45;;;;;;;10.84;63.16;102710.81;5050971;28;20025;-88
2022/03/19 03:42:54;;;;;;;26.10;13.15;;;;;;;11.04;62.51;102707.56;5051816;28;20025;-88
2022/03/19 03:45:20;;;;;;;30.08;13.73;;;;;;;11.19;62.02;102711.44;5049171;28;20017;-88
2022/03/19 03:47:46;;;;;;;27.98;14.30;;;;;;;10.87;62.97;102705.47;5048240;28;20086;-88
2022/03/19 03:50:12;;;;;;;27.55;14.32;;;;;;;10.88;62.67;102696.66;5049576;28;20479;-89
2022/03/19 03:52:37;;;;;;;27.42;13.93;;;;;;;10.73;63.34;102703.28;5049483;28;20021;-88
2022/03/19 03:55:06;;;;;;;26.27;14.90;;;;;;;10.76;63.23;102700.53;5049219;28;20070;-89
2022/03/19 03:57:34;;;;;;;30.63;14.13;;;;;;;10.83;63.08;102693.34;5051680;28;20033;-88
2022/03/19 04:00:00;;;;;;;27.02;14.18;;;;;;;10.59;63.43;102687.97;5050374;28;20053;-88
2022/03/19 04:02:26;;;;;;;24.85;15.32;;;;;;;10.80;63.22;102693.44;5049579;28;20479;-89
2022/03/19 04:04:51;;;;;;;26.27;14.05;;;;;;;10.77;63.67;102690.91;5050616;28;20087;-88
2022/03/19 04:07:16;;;;;;;30.13;14.43;;;;;;;11.00;62.64;102680.50;5047597;28;20041;-89
2022/03/19 04:09:42;;;;;;;29.90;14.35;;;;;;;11.25;61.92;102667.38;5051389;28;20029;-88
2022/03/19 04:12:09;;;;;;;31.15;14.35;;;;;;;11.02;62.68;102678.69;5050557;28;20068;-88
2022/03/19 04:14:34;;;;;;;23.45;14.00;;;;;;;11.37;61.33;102683.63;5051523;28;20045;-88
2022/03/19 04:17:00;;;;;;;29.08;15.48;;;;;;;10.87;62.67;102673.94;5050276;28;20071;-88
2022/03/19 04:19:25;;;;;;;27.15;15.32;;;;;;;10.96;62.50;102683.28;5050664;28;20444;-88
2022/03/19 04:21:51;;;;;;;27.40;15.80;;;;;;;10.81;63.17;102668.88;5046421;28;20562;-88
2022/03/19 04:24:16;;;;;;;27.65;15.07;;;;;;;10.74;63.40;102677.88;5043214;28;20025;-88
2022/03/19 04:26:41;;;;;;;31.77;15.68;;;;;;;11.03;62.02;102679.53;5051422;28;20075;-88
2022/03/19 04:29:07;;;;;;;28.70;15.30;;;;;;;11.02;62.30;102672.53;5050557;28;20017;-87
2022/03/19 04:31:32;;;;;;;28.77;15.13;;;;;;;10.66;62.70;102671.09;5049901;28;20071;-88
2022/03/19 04:33:57;;;;;;;26.42;15.50;;;;;;;11.04;62.34;102662.88;5050463;28;20494;-89
2022/03/19 04:36:38;;;;;;;27.27;15.75;;;;;;;10.84;62.93;102674.91;5047553;28;20025;-89
2022/03/19 04:39:06;;;;;;;28.45;16.60;;;;;;;10.77;63.21;102680.41;5051145;28;20025;-88
2022/03/19 04:41:32;;;;;;;31.15;17.05;;;;;;;10.91;62.73;102680.81;5045817;28;20030;-89
2022/03/19 04:43:58;;;;;;;28.95;16.73;;;;;;;10.89;62.86;102672.13;5052140;28;20441;-88
2022/03/19 04:46:23;;;;;;;29.98;16.15;;;;;;;10.71;63.54;102678.81;5053577;28;20033;-88
2022/03/19 04:48:50;;;;;;;28.85;16.58;;;;;;;10.51;63.95;102668.97;5054936;28;20496;-88
2022/03/19 04:51:18;;;;;;;32.60;15.80;;;;;;;10.95;62.47;102671.06;5054052;28;20367;-88
2022/03/19 04:53:54;;;;;;;37.55;17.52;;;;;;;10.74;63.12;102677.88;5051308;28;20021;-88
2022/03/19 04:56:24;;;;;;;31.73;16.85;;;;;;;10.36;64.49;102683.41;5053925;28;20025;-88
2022/03/19 04:58:54;;;;;;;29.80;15.35;;;;;;;10.91;62.74;102672.91;5054554;28;20036;-88
2022/03/19 05:01:21;;;;;;;26.83;16.15;;;;;;;10.66;63.46;102681.63;5052880;28;20064;-88
2022/03/19 05:03:46;;;;;;;30.83;16.85;;;;;;;10.60;63.56;102673.91;5053674;28;20418;-88
2022/03/19 05:06:12;;;;;;;34.90;17.75;;;;;;;10.66;63.10;102671.09;5052673;28;20044;-88
2022/03/19 05:08:37;;;;;;;31.98;16.50;;;;;;;10.66;63.46;102680.72;5053650;28;20048;-89
2022/03/19 05:11:16;;;;;;;37.58;16.92;;;;;;;10.58;64.02;102682.75;5053521;28;20052;-89
2022/03/19 05:13:53;;;;;;;33.95;16.98;;;;;;;10.72;63.44;102675.28;5052577;28;20484;-89
2022/03/19 05:16:19;;;;;;;32.65;16.60;;;;;;;10.78;63.02;102674.22;5053191;28;20083;-89
2022/03/19 05:18:44;;;;;;;33.30;18.33;;;;;;;10.62;63.42;102669.47;5054426;28;20032;-89
2022/03/19 05:21:12;;;;;;;29.38;16.35;;;;;;;10.87;62.67;102659.00;5048900;28;20033;-89
2022/03/19 05:23:38;;;;;;;27.05;16.02;;;;;;;10.42;63.96;102658.72;5039568;28;20060;-88
2022/03/19 05:26:03;;;;;;;32.15;16.85;;;;;;;10.73;63.57;102657.78;5051118;28;20471;-88
2022/03/19 05:28:29;;;;;;;32.38;17.65;;;;;;;10.80;63.00;102654.00;5054190;28;20023;-88
2022/03/19 05:30:57;;;;;;;28.95;17.08;;;;;;;10.68;63.38;102658.78;5051861;28;20403;-89
2022/03/19 05:34:29;;;;;;;32.85;16.95;;;;;;;10.44;63.80;102654.28;5054206;28;20074;-89
2022/03/19 05:36:08;;;;;;;32.10;17.48;;;;;;;10.79;62.93;102652.31;5053228;28;20060;-89
2022/03/19 05:38:34;;;;;;;33.95;17.13;;;;;;;10.84;62.80;102658.25;5053007;28;20053;-89
2022/03/19 05:41:00;;;;;;;24.25;16.88;;;;;;;10.87;62.58;102647.66;5053126;28;20022;-89
2022/03/19 05:43:25;;;;;;;29.63;16.98;;;;;;;10.77;62.78;102641.00;5048031;28;20032;-89
2022/03/19 05:45:50;;;;;;;30.33;17.27;;;;;;;10.61;63.42;102646.75;5052943;28;20036;-89
2022/03/19 05:48:16;;;;;;;29.02;17.25;;;;;;;10.60;63.18;102637.13;5051908;28;20021;-88
2022/03/19 05:50:41;;;;;;;29.67;16.90;;;;;;;10.82;62.63;102647.81;5049720;28;20021;-88
2022/03/19 05:53:06;;;;;;;35.70;17.23;;;;;;;10.67;62.73;102648.31;5052799;28;20078;-89
2022/03/19 05:55:32;;;;;;;33.63;16.60;;;;;;;10.35;63.74;102638.81;5050474;28;20021;-88
2022/03/19 05:57:57;;;;;;;29.25;16.55;;;;;;;10.61;62.68;102636.22;5052604;28;20029;-88
2022/03/19 06:00:22;;;;;;;28.83;16.75;;;;;;;10.55;62.99;102646.09;5052546;28;20075;-89
2022/03/19 06:02:48;;;;;;;37.53;17.05;;;;;;;10.53;63.07;102633.00;5052605;28;20052;-88
2022/03/19 06:05:13;;;;;;;30.67;19.02;;;;;;;10.15;64.67;102637.66;5053224;28;20032;-88
2022/03/19 06:07:39;;;;;;;43.10;17.77;;;;;;;10.22;63.92;102649.66;5051926;28;20033;-89
2022/03/19 06:10:06;;;;;;;31.52;17.30;;;;;;;10.47;63.41;102641.06;5053447;28;20036;-88
2022/03/19 06:12:31;;;;;;;30.50;17.50;;;;;;;10.60;62.73;102639.75;5052545;28;20033;-89
2022/03/19 06:14:57;;;;;;;29.65;18.05;;;;;;;10.32;63.60;102638.00;5053496;28;20100;-88
2022/03/19 06:17:22;;;;;;;33.35;17.42;;;;;;;10.11;64.27;102636.88;5051570;28;20163;-88
2022/03/19 06:19:48;;;;;;;33.03;17.10;;;;;;;10.16;64.03;102639.34;5053177;28;20036;-88
2022/03/19 06:22:13;;;;;;;30.10;16.50;;;;;;;10.08;64.91;102626.47;5052194;28;20059;-88
2022/03/19 06:24:39;;;;;;;39.25;18.17;;;;;;;10.38;63.57;102636.94;5046800;28;20094;-88
2022/03/19 06:27:04;;;;;;;33.63;17.67;;;;;;;10.21;63.90;102652.34;5051755;28;20029;-88
2022/03/19 06:29:30;;;;;;;34.85;17.25;;;;;;;10.32;63.19;102645.88;5052036;28;20290;-88
2022/03/19 06:31:55;;;;;;;34.85;17.38;;;;;;;10.54;62.90;102647.84;5052324;28;20025;-88
2022/03/19 06:34:21;;;;;;;36.45;18.25;;;;;;;10.50;63.39;102641.84;5051952;28;20060;-88
2022/03/19 06:39:30;;;;;;;34.90;18.60;;;;;;;10.36;63.71;102638.78;5053014;28;20035;-89
2022/03/19 06:41:56;;;;;;;28.30;17.38;;;;;;;10.42;63.38;102641.19;5052162;28;20040;-89
2022/03/19 06:44:21;;;;;;;33.83;18.50;;;;;;;10.50;63.47;102640.97;5051724;28;20025;-89
2022/03/19 06:46:47;;;;;;;27.23;16.20;;;;;;;10.28;63.50;102638.97;5049001;28;20107;-89
2022/03/19 06:49:12;;;;;;;31.85;17.15;;;;;;;10.39;63.31;102640.47;5051544;28;20463;-88
2022/03/19 06:51:38;;;;;;;29.40;16.95;;;;;;;10.47;63.10;102633.19;5051378;28;20383;-88
2022/03/19 06:54:04;;;;;;;38.55;18.25;;;;;;;10.23;63.68;102630.41;5066880;28;20069;-88
2022/03/19 06:56:29;;;;;;;28.70;17.38;;;;;;;10.39;62.92;102629.97;5051343;28;20028;-88
2022/03/19 06:58:54;;;;;;;32.70;16.98;;;;;;;10.38;63.06;102629.06;5051366;28;20480;-88
2022/03/19 07:01:20;;;;;;;28.90;16.25;;;;;;;10.36;63.02;102624.78;5051408;28;20418;-89
2022/03/19 07:03:46;;;;;;;31.85;18.00;;;;;;;10.44;62.60;102626.25;5060465;28;20020;-88
2022/03/19 07:06:12;;;;;;;32.97;16.80;;;;;;;10.47;62.98;102627.94;5066090;28;20025;-88
2022/03/19 07:08:38;;;;;;;28.20;16.67;;;;;;;10.67;61.78;102620.25;5066759;28;20069;-88
2022/03/19 07:11:04;;;;;;;34.70;17.48;;;;;;;10.68;61.53;102606.22;5050166;28;20021;-88
2022/03/19 07:13:30;;;;;;;31.25;16.35;;;;;;;10.82;61.58;102610.13;5051252;28;20075;-88
2022/03/19 07:15:55;;;;;;;29.83;15.48;;;;;;;10.95;60.78;102608.81;5050231;28;20021;-87
2022/03/19 07:18:20;;;;;;;29.35;15.50;;;;;;;10.72;61.13;102606.97;5051739;28;20029;-87
2022/03/19 07:20:46;;;;;;;28.58;17.52;;;;;;;10.84;61.09;102605.69;5052536;28;20115;-87
2022/03/19 07:23:11;;;;;;;32.47;16.05;;;;;;;10.79;61.18;102610.25;5051359;28;20031;-87
2022/03/19 07:25:39;;;;;;;27.75;16.08;;;;;;;10.91;61.15;102601.94;5050748;28;20025;-86
2022/03/19 07:28:10;;;;;;;26.92;16.20;;;;;;;11.19;59.90;102599.22;5050822;28;20485;-86
2022/03/19 07:30:36;;;;;;;28.45;15.23;;;;;;;12.40;56.92;102598.19;5051150;28;20021;-86
2022/03/19 07:33:02;;;;;;;21.35;14.27;;;;;;;11.94;57.40;102595.59;5050927;28;20033;-87
2022/03/19 07:35:27;;;;;;;31.85;15.65;;;;;;;11.63;57.90;102588.88;5052261;28;20037;-86
2022/03/19 07:37:53;;;;;;;27.88;14.27;;;;;;;11.83;57.09;102592.50;5052346;28;20025;-86
2022/03/19 07:43:09;;;;;;;22.90;14.57;;;;;;;12.11;56.41;102589.69;5051096;28;20398;-87
2022/03/19 07:45:35;;;;;;;22.85;13.00;;;;;;;12.84;54.60;102582.31;5051541;28;20420;-87
2022/03/19 07:48:01;;;;;;;22.77;12.82;;;;;;;13.54;52.77;102588.06;5051884;28;20029;-87
2022/03/19 07:50:27;;;;;;;23.10;12.98;;;;;;;14.12;51.33;102587.09;5050796;28;20025;-87
2022/03/19 07:52:52;;;;;;;21.30;12.45;;;;;;;14.48;49.92;102581.81;5050678;28;20027;-87
2022/03/19 07:55:18;;;;;;;21.35;12.43;;;;;;;14.88;49.21;102588.59;5050829;28;20108;-87
2022/03/19 07:57:44;;;;;;;20.20;12.20;;;;;;;14.56;49.72;102605.22;5051110;28;20032;-87
2022/03/19 08:00:12;;;;;;;22.65;13.23;;;;;;;15.17;48.38;102573.00;5051431;28;20029;-87
2022/03/19 08:02:38;;;;;;;19.30;12.32;;;;;;;15.88;46.38;102585.09;5049482;28;20107;-85
2022/03/19 08:05:04;;;;;;;18.58;11.88;;;;;;;16.52;45.20;102569.94;5050698;28;20048;-86
2022/03/19 08:07:30;;;;;;;21.25;12.00;;;;;;;16.47;44.92;102564.09;5051326;28;20544;-86
2022/03/19 08:09:56;;;;;;;20.73;11.38;;;;;;;17.24;43.44;102576.28;5051325;28;20036;-87
2022/03/19 08:12:21;;;;;;;21.65;11.80;;;;;;;17.80;42.13;102570.13;5051383;28;20021;-87
2022/03/19 08:14:47;;;;;;;21.45;10.98;;;;;;;18.03;41.80;102569.53;5050093;28;20108;-88
2022/03/19 08:17:13;;;;;;;20.95;10.52;;;;;;;19.42;39.90;102563.63;5048602;28;20109;-87
2022/03/19 08:19:39;;;;;;;22.63;10.77;;;;;;;19.96;38.35;102574.91;5053955;28;20021;-87
2022/03/19 08:22:04;;;;;;;17.52;11.35;;;;;;;19.68;37.93;102576.91;5050644;28;20044;-87
2022/03/19 08:24:29;;;;;;;19.60;10.95;;;;;;;19.74;38.53;102579.16;5050347;28;20086;-86
2022/03/19 08:26:55;;;;;;;18.67;11.77;;;;;;;19.73;38.14;102580.13;5049934;28;20402;-87
2022/03/19 08:29:24;;;;;;;18.63;11.13;;;;;;;19.85;37.60;102577.53;5049609;28;20371;-87
2022/03/19 08:31:51;;;;;;;17.42;10.45;;;;;;;20.36;37.17;102577.31;5050148;28;20026;-89
2022/03/19 08:34:16;;;;;;;20.48;10.95;;;;;;;20.65;36.56;102577.78;5049663;28;20029;-88
2022/03/19 08:36:42;;;;;;;16.85;10.23;;;;;;;20.89;36.21;102564.38;5049634;28;20037;-89
2022/03/19 08:41:51;;;;;;;19.63;10.13;;;;;;;21.87;34.60;102570.91;5048767;28;20044;-87
2022/03/19 08:44:17;;;;;;;15.75;9.98;;;;;;;21.67;34.84;102572.53;5049439;28;20021;-87
2022/03/19 08:46:42;;;;;;;16.75;9.95;;;;;;;21.66;34.92;102565.47;5053949;28;20079;-87
2022/03/19 08:49:08;;;;;;;15.38;10.35;;;;;;;22.44;33.97;102579.59;5053719;28;20025;-87
2022/03/19 08:51:39;;;;;;;20.75;11.52;;;;;;;21.90;34.29;102565.28;5056344;28;20051;-85
2022/03/19 08:54:06;;;;;;;16.92;9.77;;;;;;;22.54;33.59;102577.84;5039225;28;20499;-85
2022/03/19 08:56:33;;;;;;;21.80;10.07;;;;;;;22.52;33.10;102582.47;5053909;28;20548;-85
2022/03/19 08:58:59;;;;;;;14.48;9.48;;;;;;;22.81;32.89;102571.09;5064418;28;20029;-86
2022/03/19 09:01:25;;;;;;;16.77;9.63;;;;;;;22.89;32.43;102569.47;5054242;28;20040;-85
2022/03/19 09:03:50;;;;;;;21.38;10.30;;;;;;;23.26;32.12;102577.00;5053902;28;20029;-86
2022/03/19 09:06:17;;;;;;;16.25;10.20;;;;;;;22.83;32.42;102570.00;5054552;28;20033;-86
2022/03/19 09:08:42;;;;;;;14.25;9.77;;;;;;;23.65;31.86;102563.69;5054558;28;20255;-86
2022/03/19 09:11:07;;;;;;;18.83;10.85;;;;;;;23.95;30.78;102575.34;5054218;28;20264;-86
2022/03/19 09:13:33;;;;;;;20.05;11.07;;;;;;;23.68;30.59;102558.06;5054144;28;20025;-87
2022/03/19 09:15:59;;;;;;;15.23;11.32;;;;;;;23.36;31.52;102560.94;5054489;28;20051;-86
2022/03/19 09:18:26;;;;;;;21.13;11.25;;;;;;;24.34;30.16;102561.94;5053493;28;20025;-87
2022/03/19 09:20:51;;;;;;;20.50;11.00;;;;;;;23.68;30.19;102563.44;5054188;28;20033;-87
2022/03/19 09:23:17;;;;;;;16.73;11.00;;;;;;;24.39;30.37;102554.34;5055846;28;20117;-87
2022/03/19 09:25:42;;;;;;;18.63;12.60;;;;;;;24.77;29.28;102554.44;5052535;28;20450;-87
2022/03/19 09:28:08;;;;;;;23.70;13.75;;;;;;;24.36;29.29;102549.22;5053281;28;20055;-88
2022/03/19 09:30:34;;;;;;;24.00;13.15;;;;;;;24.68;29.31;102545.38;5053332;28;20078;-88
2022/03/19 09:33:00;;;;;;;17.92;12.05;;;;;;;25.09;28.46;102548.66;5052069;28;20574;-87
2022/03/19 09:35:26;;;;;;;18.98;12.68;;;;;;;24.86;28.63;102540.09;5052690;28;20021;-87
2022/03/19 09:37:51;;;;;;;17.73;11.95;;;;;;;24.85;29.13;102533.06;5052228;28;20029;-87
2022/03/19 09:40:18;;;;;;;18.38;13.00;;;;;;;25.11;28.22;102541.28;5052631;28;20056;-88
2022/03/19 09:42:48;;;;;;;23.55;13.50;;;;;;;24.80;28.41;102548.75;5043729;28;20033;-88
2022/03/19 09:45:14;;;;;;;21.88;12.38;;;;;;;24.19;29.04;102534.72;5052612;28;20067;-87
2022/03/19 09:47:39;;;;;;;15.30;11.60;;;;;;;25.51;28.16;102540.09;5052582;28;20410;-87
2022/03/19 09:50:05;;;;;;;17.45;13.00;;;;;;;24.81;28.27;102531.66;5052468;28;20031;-86
2022/03/19 09:52:35;;;;;;;17.05;12.45;;;;;;;24.82;28.43;102539.56;5051842;28;20025;-85
2022/03/19 09:55:01;;;;;;;19.35;11.63;;;;;;;25.14;28.05;102535.63;5052613;28;20135;-86
2022/03/19 09:57:26;;;;;;;21.17;12.95;;;;;;;24.65;28.61;102524.22;5052178;28;20538;-86
2022/03/19 09:59:52;;;;;;;20.45;12.30;;;;;;;24.76;28.69;102517.81;5052344;28;20567;-86
2022/03/19 10:02:18;;;;;;;20.77;13.13;;;;;;;25.21;28.05;102515.19;5052111;28;20021;-85
2022/03/19 10:04:44;;;;;;;17.85;11.82;;;;;;;25.49;27.64;102504.44;5051861;28;20025;-86
2022/03/19 10:09:56;;;;;;;19.00;11.80;;;;;;;24.17;28.91;102507.16;5050273;28;20079;-91
2022/03/19 10:13:26;;;;;;;15.70;11.02;;;;;;;23.53;29.49;102503.13;5067998;28;20399;-84
2022/03/19 10:15:52;;;;;;;41.78;12.63;;;;;;;22.17;30.95;102490.75;5068051;28;20086;-81
2022/03/19 10:18:17;;;;;;;40.80;13.02;;;;;;;22.56;31.03;102498.22;5068711;28;20017;-88
2022/03/19 10:20:44;;;;;;;20.30;11.63;;;;;;;21.41;32.09;102494.44;5062778;28;20028;-83
2022/03/19 10:23:10;;;;;;;20.48;11.05;;;;;;;21.88;31.57;102509.28;5062952;28;20028;-84
2022/03/19 10:25:35;;;;;;;23.40;10.88;;;;;;;21.32;32.39;102486.16;5051580;28;20535;-84
2022/03/19 10:28:09;;;;;;;20.52;11.00;;;;;;;21.95;31.55;102488.19;5053586;28;20467;-83
2022/03/19 10:30:40;;;;;;;18.38;10.30;;;;;;;22.01;31.31;102481.50;5062158;28;20025;-83
2022/03/19 10:33:09;;;;;;;20.20;10.05;;;;;;;21.79;30.61;102470.75;5054960;28;20035;-84
2022/03/19 10:35:38;;;;;;;14.90;9.27;;;;;;;22.00;31.02;102477.97;5058445;28;20068;-85
2022/03/19 10:38:24;;;;;;;15.85;9.30;;;;;;;21.08;31.88;102472.13;5061909;28;20067;-85
2022/03/19 10:40:52;;;;;;;15.50;8.32;;;;;;;21.90;31.44;102458.31;5057152;28;20078;-84
2022/03/19 10:43:23;;;;;;;28.10;9.18;;;;;;;21.89;31.23;102470.00;5056718;28;20108;-84
2022/03/19 10:45:50;;;;;;;18.50;9.10;;;;;;;22.33;30.69;102455.56;5049449;28;20405;-84
2022/03/19 10:48:19;;;;;;;23.88;7.72;;;;;;;23.24;29.83;102446.78;5053855;28;20033;-84
2022/03/19 10:50:45;;;;;;;17.48;7.47;;;;;;;23.19;29.30;102449.88;5053203;28;20029;-84
2022/03/19 10:53:10;;;;;;;18.70;7.32;;;;;;;22.68;30.11;102448.97;5055794;28;20036;-85
2022/03/19 10:55:36;;;;;;;17.10;7.15;;;;;;;22.54;29.80;102446.66;5059510;28;20476;-83
2022/03/19 10:58:01;;;;;;;14.45;7.35;;;;;;;22.31;30.19;102449.47;5058144;28;20046;-84
2022/03/19 11:00:28;;;;;;;13.95;6.50;;;;;;;21.18;31.01;102457.03;5057845;28;20387;-86
2022/03/19 11:02:57;;;;;;;17.70;6.60;;;;;;;21.78;30.53;102436.13;5051811;28;20035;-85
2022/03/19 11:05:24;;;;;;;19.42;6.60;;;;;;;21.78;31.03;102434.31;5051289;28;20542;-85
2022/03/19 11:07:51;;;;;;;15.02;6.03;;;;;;;22.27;29.44;102445.38;5049920;28;20036;-86
2022/03/19 11:10:19;;;;;;;14.90;5.75;;;;;;;22.93;29.57;102441.47;5053509;28;20504;-87
2022/03/19 11:12:50;;;;;;;18.02;6.28;;;;;;;22.20;29.32;102436.16;5057943;28;20543;-85
2022/03/19 11:15:17;;;;;;;12.40;5.85;;;;;;;21.24;30.74;102432.50;5059416;28;20037;-85
2022/03/19 11:17:44;;;;;;;24.70;5.13;;;;;;;22.27;29.67;102428.47;5061369;28;20029;-85
2022/03/19 11:20:11;;;;;;;16.50;5.95;;;;;;;22.19;29.05;102426.41;5048042;28;20072;-85
2022/03/19 11:22:41;;;;;;;20.45;5.93;;;;;;;21.59;29.76;102423.44;5057307;28;20029;-85